NCAR-RAP Real-Time Weather Data

Output produced by METARs form (07 March 2021  05:51 UTC)
found at http://weather.rap.ucar.edu/surface/
 
KBDL 070451Z 32007KT 10SM BKN060 M05/M13 A3018 RMK AO2 SLP223 T10501128 400111061
KBDL 070351Z 32004KT 10SM FEW060 M05/M13 A3016 RMK AO2 SLP217 T10501128
KBDL 070251Z 30008KT 10SM BKN050 OVC060 M04/M13 A3016 RMK AO2 SLP217 T10391128 51009
KBDL 070151Z 33006KT 10SM OVC050 M04/M14 A3016 RMK AO2 SLP217 T10391139
KBDL 070051Z 31007KT 10SM BKN050 M04/M14 A3016 RMK AO2 SLP214 T10391139
KBDL 062351Z 33009G17KT 10SM SCT045 M04/M13 A3014 RMK AO2 SLP208 T10391128 10011 21039 53032
KBDL 062251Z 31014G20KT 10SM FEW048 BKN060 M03/M13 A3010 RMK AO2 SLP195 T10281128
KBDL 062151Z 32015KT 10SM BKN049 BKN060 M02/M13 A3007 RMK AO2 SLP185 T10221128
KBDL 062051Z 29014G20KT 10SM BKN050 BKN110 M01/M13 A3004 RMK AO2 SLP176 T10111133 53014
KBDL 061951Z 33012KT 10SM BKN055 BKN100 M01/M14 A3002 RMK AO2 SLP168 T10061139
KBDL 061851Z 29012G24KT 10SM SCT050 SCT100 M01/M14 A3001 RMK AO2 SLP164 T10061139
KBDL 061751Z 29013KT 10SM FEW050 FEW110 M01/M14 A3000 RMK AO2 SLP161 T10061139 11006 21056 58010
KBDL 061651Z 29013G17KT 10SM FEW050 M01/M14 A3002 RMK AO2 SLP167 T10111144
KBDL 061551Z 31013G16KT 10SM FEW050 FEW250 M02/M14 A3003 RMK AO2 SLP170 T10171144
KBDL 061451Z 33011KT 10SM FEW045 SCT250 M03/M15 A3003 RMK AO2 WSHFT 1338 SLP171 T10281150 51016
KBDL 061358Z 29013G18KT 10SM SCT043 SCT250 M03/M14 A3003 RMK AO2 WSHFT 1338 T10331144
KBDL 061351Z 29011KT 10SM SCT043 SCT250 M04/M15 A3003 RMK AO2 WSHFT 1336 SLP170 T10391150
KBDL 061251Z 30008KT 10SM FEW030 FEW050 SCT250 M04/M14 A3001 RMK AO2 SLP164 T10441139
KBDL 061151Z 34006KT 10SM FEW055 FEW220 SCT250 M06/M14 A2999 RMK AO2 SLP156 T10561139 11033 21061 51018
KBDL 061051Z 30010KT 10SM FEW055 SCT230 BKN250 M06/M14 A2997 RMK AO2 SLP150 T10561139
KBDL 060951Z 31005KT 10SM FEW050 BKN220 M05/M14 A2995 RMK AO2 SLP144 T10501139
KBDL 060851Z 31005KT 10SM FEW046 BKN220 M04/M12 A2993 RMK AO2 SLP137 T10441122 53013